sensor_id;sensor_type;location;lat;lon;timestamp;P1;durP1;ratioP1;P2;durP2;ratioP2
577;SDS011;275;48.492;9.214;2023-03-03T00:00:36;57.63;;;49.70;;
577;SDS011;275;48.492;9.214;2023-03-03T00:03:03;56.38;;;49.83;;
577;SDS011;275;48.492;9.214;2023-03-03T00:05:32;54.65;;;49.20;;
577;SDS011;275;48.492;9.214;2023-03-03T00:08:00;55.33;;;49.50;;
577;SDS011;275;48.492;9.214;2023-03-03T00:10:29;57.90;;;51.92;;
577;SDS011;275;48.492;9.214;2023-03-03T00:12:56;56.63;;;50.90;;
577;SDS011;275;48.492;9.214;2023-03-03T00:15:24;58.67;;;52.03;;
577;SDS011;275;48.492;9.214;2023-03-03T00:17:51;56.33;;;50.33;;
577;SDS011;275;48.492;9.214;2023-03-03T00:23:12;58.80;;;52.33;;
577;SDS011;275;48.492;9.214;2023-03-03T00:25:45;58.42;;;52.03;;
577;SDS011;275;48.492;9.214;2023-03-03T00:28:19;56.70;;;50.58;;
577;SDS011;275;48.492;9.214;2023-03-03T00:30:49;54.92;;;49.03;;
577;SDS011;275;48.492;9.214;2023-03-03T00:33:27;55.50;;;49.67;;
577;SDS011;275;48.492;9.214;2023-03-03T00:35:58;56.80;;;50.00;;
577;SDS011;275;48.492;9.214;2023-03-03T00:38:46;57.90;;;51.80;;
577;SDS011;275;48.492;9.214;2023-03-03T00:41:16;58.42;;;52.30;;
577;SDS011;275;48.492;9.214;2023-03-03T00:43:47;55.80;;;49.80;;
577;SDS011;275;48.492;9.214;2023-03-03T00:46:14;57.95;;;51.88;;
577;SDS011;275;48.492;9.214;2023-03-03T00:48:44;56.45;;;50.35;;
577;SDS011;275;48.492;9.214;2023-03-03T00:51:18;57.08;;;51.05;;
577;SDS011;275;48.492;9.214;2023-03-03T00:53:51;53.65;;;48.20;;
577;SDS011;275;48.492;9.214;2023-03-03T00:56:20;54.10;;;47.45;;
577;SDS011;275;48.492;9.214;2023-03-03T00:58:47;55.50;;;49.70;;
577;SDS011;275;48.492;9.214;2023-03-03T01:01:14;55.20;;;49.40;;
577;SDS011;275;48.492;9.214;2023-03-03T01:03:41;56.38;;;50.30;;
577;SDS011;275;48.492;9.214;2023-03-03T01:06:09;60.03;;;53.60;;
577;SDS011;275;48.492;9.214;2023-03-03T01:08:37;58.40;;;52.00;;
577;SDS011;275;48.492;9.214;2023-03-03T01:11:05;59.08;;;52.97;;
577;SDS011;275;48.492;9.214;2023-03-03T01:13:35;58.45;;;52.08;;
577;SDS011;275;48.492;9.214;2023-03-03T01:16:05;59.20;;;52.72;;
577;SDS011;275;48.492;9.214;2023-03-03T01:18:33;57.35;;;51.25;;
577;SDS011;275;48.492;9.214;2023-03-03T01:21:00;59.65;;;53.40;;
577;SDS011;275;48.492;9.214;2023-03-03T01:23:27;58.50;;;52.38;;
577;SDS011;275;48.492;9.214;2023-03-03T01:25:54;58.95;;;52.85;;
577;SDS011;275;48.492;9.214;2023-03-03T01:28:21;58.53;;;52.33;;
577;SDS011;275;48.492;9.214;2023-03-03T01:30:49;61.20;;;54.47;;
577;SDS011;275;48.492;9.214;2023-03-03T01:33:16;58.05;;;52.05;;
577;SDS011;275;48.492;9.214;2023-03-03T01:35:43;61.67;;;54.13;;
577;SDS011;275;48.492;9.214;2023-03-03T01:38:11;59.78;;;53.00;;
577;SDS011;275;48.492;9.214;2023-03-03T01:40:38;57.17;;;51.17;;
577;SDS011;275;48.492;9.214;2023-03-03T01:43:04;57.03;;;51.13;;
577;SDS011;275;48.492;9.214;2023-03-03T01:45:35;55.92;;;50.08;;
577;SDS011;275;48.492;9.214;2023-03-03T01:48:27;57.58;;;51.47;;
577;SDS011;275;48.492;9.214;2023-03-03T01:50:56;57.63;;;51.55;;
577;SDS011;275;48.492;9.214;2023-03-03T01:53:27;57.50;;;51.35;;
577;SDS011;275;48.492;9.214;2023-03-03T01:55:58;54.55;;;48.90;;
577;SDS011;275;48.492;9.214;2023-03-03T01:58:26;57.28;;;51.05;;
577;SDS011;275;48.492;9.214;2023-03-03T02:00:56;54.65;;;49.10;;
577;SDS011;275;48.492;9.214;2023-03-03T02:03:28;58.70;;;52.47;;
577;SDS011;275;48.492;9.214;2023-03-03T02:05:56;55.40;;;49.70;;
577;SDS011;275;48.492;9.214;2023-03-03T02:08:26;57.42;;;51.20;;
577;SDS011;275;48.492;9.214;2023-03-03T02:10:56;58.45;;;52.20;;
577;SDS011;275;48.492;9.214;2023-03-03T02:13:23;59.92;;;53.72;;
577;SDS011;275;48.492;9.214;2023-03-03T02:15:50;59.45;;;53.15;;
577;SDS011;275;48.492;9.214;2023-03-03T02:18:18;59.05;;;51.05;;
577;SDS011;275;48.492;9.214;2023-03-03T02:20:50;59.80;;;53.42;;
577;SDS011;275;48.492;9.214;2023-03-03T02:23:23;60.40;;;54.00;;
577;SDS011;275;48.492;9.214;2023-03-03T02:26:03;59.22;;;52.92;;
577;SDS011;275;48.492;9.214;2023-03-03T02:28:32;56.28;;;50.22;;
577;SDS011;275;48.492;9.214;2023-03-03T02:31:01;58.85;;;52.53;;
577;SDS011;275;48.492;9.214;2023-03-03T02:33:30;57.40;;;51.63;;
577;SDS011;275;48.492;9.214;2023-03-03T02:35:57;57.67;;;51.47;;
577;SDS011;275;48.492;9.214;2023-03-03T02:38:24;57.58;;;51.22;;
577;SDS011;275;48.492;9.214;2023-03-03T02:40:57;54.78;;;49.28;;
577;SDS011;275;48.492;9.214;2023-03-03T02:43:30;57.85;;;51.53;;
577;SDS011;275;48.492;9.214;2023-03-03T02:46:07;58.95;;;52.75;;
577;SDS011;275;48.492;9.214;2023-03-03T02:48:34;58.70;;;52.50;;
577;SDS011;275;48.492;9.214;2023-03-03T02:51:01;57.75;;;51.22;;
577;SDS011;275;48.492;9.214;2023-03-03T02:53:28;60.33;;;52.63;;
577;SDS011;275;48.492;9.214;2023-03-03T02:55:54;58.78;;;52.53;;
577;SDS011;275;48.492;9.214;2023-03-03T02:58:21;61.08;;;54.88;;
577;SDS011;275;48.492;9.214;2023-03-03T03:00:49;60.97;;;54.67;;
577;SDS011;275;48.492;9.214;2023-03-03T03:03:16;62.53;;;55.50;;
577;SDS011;275;48.492;9.214;2023-03-03T03:05:43;62.92;;;53.30;;
577;SDS011;275;48.492;9.214;2023-03-03T03:08:10;63.60;;;53.53;;
577;SDS011;275;48.492;9.214;2023-03-03T03:10:36;60.35;;;53.95;;
577;SDS011;275;48.492;9.214;2023-03-03T03:13:03;57.38;;;51.28;;
577;SDS011;275;48.492;9.214;2023-03-03T03:15:30;59.50;;;53.33;;
577;SDS011;275;48.492;9.214;2023-03-03T03:17:58;58.22;;;51.65;;
577;SDS011;275;48.492;9.214;2023-03-03T03:20:25;60.22;;;53.75;;
577;SDS011;275;48.492;9.214;2023-03-03T03:22:52;56.75;;;49.08;;
577;SDS011;275;48.492;9.214;2023-03-03T03:25:19;57.95;;;51.70;;
577;SDS011;275;48.492;9.214;2023-03-03T03:27:46;60.08;;;53.78;;
577;SDS011;275;48.492;9.214;2023-03-03T03:30:12;63.22;;;56.50;;
577;SDS011;275;48.492;9.214;2023-03-03T03:32:40;61.83;;;55.13;;
577;SDS011;275;48.492;9.214;2023-03-03T03:35:08;59.28;;;53.08;;
577;SDS011;275;48.492;9.214;2023-03-03T03:37:38;59.70;;;53.33;;
577;SDS011;275;48.492;9.214;2023-03-03T03:40:06;58.67;;;52.72;;
577;SDS011;275;48.492;9.214;2023-03-03T03:42:33;60.25;;;53.88;;
577;SDS011;275;48.492;9.214;2023-03-03T03:44:59;62.33;;;54.08;;
577;SDS011;275;48.492;9.214;2023-03-03T03:47:26;65.80;;;58.80;;
577;SDS011;275;48.492;9.214;2023-03-03T03:49:53;60.60;;;53.75;;
577;SDS011;275;48.492;9.214;2023-03-03T03:52:21;60.15;;;53.75;;
577;SDS011;275;48.492;9.214;2023-03-03T03:54:48;61.90;;;55.20;;
577;SDS011;275;48.492;9.214;2023-03-03T03:57:15;61.00;;;54.65;;
577;SDS011;275;48.492;9.214;2023-03-03T03:59:41;61.88;;;55.08;;
577;SDS011;275;48.492;9.214;2023-03-03T04:02:08;58.83;;;52.58;;
577;SDS011;275;48.492;9.214;2023-03-03T04:04:35;58.42;;;52.67;;
577;SDS011;275;48.492;9.214;2023-03-03T04:07:02;59.90;;;53.35;;
577;SDS011;275;48.492;9.214;2023-03-03T04:09:30;60.72;;;54.20;;
577;SDS011;275;48.492;9.214;2023-03-03T04:11:57;60.78;;;54.53;;
577;SDS011;275;48.492;9.214;2023-03-03T04:14:24;60.35;;;52.95;;
577;SDS011;275;48.492;9.214;2023-03-03T04:16:51;58.22;;;51.95;;
577;SDS011;275;48.492;9.214;2023-03-03T04:19:18;60.10;;;53.25;;
577;SDS011;275;48.492;9.214;2023-03-03T04:21:44;56.65;;;50.50;;
577;SDS011;275;48.492;9.214;2023-03-03T04:24:11;59.08;;;52.22;;
577;SDS011;275;48.492;9.214;2023-03-03T04:26:39;58.78;;;50.83;;
577;SDS011;275;48.492;9.214;2023-03-03T04:29:06;57.38;;;51.47;;
577;SDS011;275;48.492;9.214;2023-03-03T04:31:33;62.92;;;56.28;;
577;SDS011;275;48.492;9.214;2023-03-03T04:34:00;60.60;;;53.65;;
577;SDS011;275;48.492;9.214;2023-03-03T04:36:27;61.15;;;54.85;;
577;SDS011;275;48.492;9.214;2023-03-03T04:38:53;62.67;;;55.85;;
577;SDS011;275;48.492;9.214;2023-03-03T04:41:20;61.35;;;53.97;;
577;SDS011;275;48.492;9.214;2023-03-03T04:43:48;60.13;;;53.38;;
577;SDS011;275;48.492;9.214;2023-03-03T04:46:15;59.78;;;53.58;;
577;SDS011;275;48.492;9.214;2023-03-03T04:48:42;59.13;;;52.80;;
577;SDS011;275;48.492;9.214;2023-03-03T04:51:09;59.42;;;53.13;;
577;SDS011;275;48.492;9.214;2023-03-03T04:53:35;58.00;;;49.95;;
577;SDS011;275;48.492;9.214;2023-03-03T04:56:02;59.72;;;52.67;;
577;SDS011;275;48.492;9.214;2023-03-03T04:58:30;58.38;;;52.28;;
577;SDS011;275;48.492;9.214;2023-03-03T05:00:58;58.63;;;52.40;;
577;SDS011;275;48.492;9.214;2023-03-03T05:03:25;61.55;;;54.45;;
577;SDS011;275;48.492;9.214;2023-03-03T05:05:52;59.97;;;53.53;;
577;SDS011;275;48.492;9.214;2023-03-03T05:08:19;60.17;;;53.25;;
577;SDS011;275;48.492;9.214;2023-03-03T05:10:46;59.72;;;53.25;;
577;SDS011;275;48.492;9.214;2023-03-03T05:13:16;61.88;;;53.35;;
577;SDS011;275;48.492;9.214;2023-03-03T05:15:43;56.30;;;50.20;;
577;SDS011;275;48.492;9.214;2023-03-03T05:18:16;57.85;;;51.65;;
577;SDS011;275;48.492;9.214;2023-03-03T05:20:43;62.15;;;55.50;;
577;SDS011;275;48.492;9.214;2023-03-03T05:23:10;61.90;;;55.17;;
577;SDS011;275;48.492;9.214;2023-03-03T05:25:37;59.45;;;52.97;;
577;SDS011;275;48.492;9.214;2023-03-03T05:28:05;59.40;;;53.28;;
577;SDS011;275;48.492;9.214;2023-03-03T05:30:32;61.20;;;54.58;;
577;SDS011;275;48.492;9.214;2023-03-03T05:32:59;59.15;;;52.83;;
577;SDS011;275;48.492;9.214;2023-03-03T05:35:27;61.83;;;54.97;;
577;SDS011;275;48.492;9.214;2023-03-03T05:37:54;59.47;;;53.38;;
577;SDS011;275;48.492;9.214;2023-03-03T05:40:22;60.00;;;53.70;;
577;SDS011;275;48.492;9.214;2023-03-03T05:42:49;62.97;;;56.08;;
577;SDS011;275;48.492;9.214;2023-03-03T05:45:16;58.85;;;52.42;;
577;SDS011;275;48.492;9.214;2023-03-03T05:47:45;61.63;;;54.83;;
577;SDS011;275;48.492;9.214;2023-03-03T05:50:12;59.80;;;53.30;;
577;SDS011;275;48.492;9.214;2023-03-03T05:52:40;60.78;;;54.38;;
577;SDS011;275;48.492;9.214;2023-03-03T05:55:08;59.67;;;53.50;;
577;SDS011;275;48.492;9.214;2023-03-03T05:57:35;61.63;;;53.92;;
577;SDS011;275;48.492;9.214;2023-03-03T06:00:02;58.35;;;52.25;;
577;SDS011;275;48.492;9.214;2023-03-03T06:02:31;60.30;;;54.10;;
577;SDS011;275;48.492;9.214;2023-03-03T06:04:58;59.85;;;53.38;;
577;SDS011;275;48.492;9.214;2023-03-03T06:07:25;59.25;;;53.10;;
577;SDS011;275;48.492;9.214;2023-03-03T06:09:54;57.80;;;51.63;;
577;SDS011;275;48.492;9.214;2023-03-03T06:12:20;56.53;;;50.85;;
577;SDS011;275;48.492;9.214;2023-03-03T06:14:47;56.22;;;50.13;;
577;SDS011;275;48.492;9.214;2023-03-03T06:17:14;58.63;;;52.17;;
577;SDS011;275;48.492;9.214;2023-03-03T06:19:41;60.80;;;53.90;;
577;SDS011;275;48.492;9.214;2023-03-03T06:22:08;60.35;;;54.10;;
577;SDS011;275;48.492;9.214;2023-03-03T06:24:35;58.30;;;52.38;;
577;SDS011;275;48.492;9.214;2023-03-03T06:27:03;57.90;;;52.17;;
577;SDS011;275;48.492;9.214;2023-03-03T06:29:30;57.58;;;51.38;;
577;SDS011;275;48.492;9.214;2023-03-03T06:31:57;58.85;;;52.85;;
577;SDS011;275;48.492;9.214;2023-03-03T06:34:24;60.95;;;54.35;;
577;SDS011;275;48.492;9.214;2023-03-03T06:36:50;56.85;;;50.65;;
577;SDS011;275;48.492;9.214;2023-03-03T06:39:17;56.35;;;50.35;;
577;SDS011;275;48.492;9.214;2023-03-03T06:41:44;55.45;;;49.47;;
577;SDS011;275;48.492;9.214;2023-03-03T06:44:12;60.00;;;53.70;;
577;SDS011;275;48.492;9.214;2023-03-03T06:46:39;56.35;;;50.55;;
577;SDS011;275;48.492;9.214;2023-03-03T06:49:06;62.17;;;55.75;;
577;SDS011;275;48.492;9.214;2023-03-03T06:51:33;57.30;;;51.25;;
577;SDS011;275;48.492;9.214;2023-03-03T06:54:08;58.92;;;52.85;;
577;SDS011;275;48.492;9.214;2023-03-03T06:56:36;58.72;;;52.28;;
577;SDS011;275;48.492;9.214;2023-03-03T06:59:05;57.08;;;51.17;;
577;SDS011;275;48.492;9.214;2023-03-03T07:01:39;59.50;;;53.15;;
577;SDS011;275;48.492;9.214;2023-03-03T07:04:09;55.88;;;50.30;;
577;SDS011;275;48.492;9.214;2023-03-03T07:06:41;58.15;;;52.13;;
577;SDS011;275;48.492;9.214;2023-03-03T07:09:10;59.88;;;52.28;;
577;SDS011;275;48.492;9.214;2023-03-03T07:11:45;56.83;;;50.55;;
577;SDS011;275;48.492;9.214;2023-03-03T07:14:13;59.22;;;52.58;;
577;SDS011;275;48.492;9.214;2023-03-03T07:16:44;59.13;;;52.67;;
577;SDS011;275;48.492;9.214;2023-03-03T07:19:16;58.30;;;52.30;;
577;SDS011;275;48.492;9.214;2023-03-03T07:21:46;57.95;;;51.72;;
577;SDS011;275;48.492;9.214;2023-03-03T07:24:17;58.95;;;52.72;;
577;SDS011;275;48.492;9.214;2023-03-03T07:26:51;62.10;;;55.25;;
577;SDS011;275;48.492;9.214;2023-03-03T07:29:19;61.10;;;54.88;;
577;SDS011;275;48.492;9.214;2023-03-03T07:31:51;57.70;;;51.45;;
577;SDS011;275;48.492;9.214;2023-03-03T07:34:20;56.70;;;50.40;;
577;SDS011;275;48.492;9.214;2023-03-03T07:36:49;56.42;;;50.50;;
577;SDS011;275;48.492;9.214;2023-03-03T07:39:27;57.85;;;51.92;;
577;SDS011;275;48.492;9.214;2023-03-03T07:41:59;59.47;;;52.80;;
577;SDS011;275;48.492;9.214;2023-03-03T07:44:38;65.90;;;54.75;;
577;SDS011;275;48.492;9.214;2023-03-03T07:47:14;62.67;;;53.10;;
577;SDS011;275;48.492;9.214;2023-03-03T07:49:44;64.28;;;54.85;;
577;SDS011;275;48.492;9.214;2023-03-03T07:52:26;64.07;;;56.83;;
577;SDS011;275;48.492;9.214;2023-03-03T07:54:57;59.50;;;53.15;;
577;SDS011;275;48.492;9.214;2023-03-03T07:57:26;57.83;;;51.53;;
577;SDS011;275;48.492;9.214;2023-03-03T07:59:58;60.40;;;53.67;;
577;SDS011;275;48.492;9.214;2023-03-03T08:02:34;57.33;;;51.38;;
577;SDS011;275;48.492;9.214;2023-03-03T08:08:11;56.10;;;50.17;;
577;SDS011;275;48.492;9.214;2023-03-03T08:10:46;56.50;;;50.70;;
577;SDS011;275;48.492;9.214;2023-03-03T08:13:17;57.45;;;51.15;;
577;SDS011;275;48.492;9.214;2023-03-03T08:15:46;54.25;;;48.50;;
577;SDS011;275;48.492;9.214;2023-03-03T08:18:22;54.33;;;48.60;;
577;SDS011;275;48.492;9.214;2023-03-03T08:20:54;56.35;;;50.13;;
577;SDS011;275;48.492;9.214;2023-03-03T08:23:22;55.28;;;49.38;;
577;SDS011;275;48.492;9.214;2023-03-03T08:25:49;54.78;;;47.22;;
577;SDS011;275;48.492;9.214;2023-03-03T08:28:17;54.50;;;48.90;;
577;SDS011;275;48.492;9.214;2023-03-03T08:30:45;51.72;;;46.33;;
577;SDS011;275;48.492;9.214;2023-03-03T08:33:12;54.95;;;49.15;;
577;SDS011;275;48.492;9.214;2023-03-03T08:35:41;55.65;;;49.83;;
577;SDS011;275;48.492;9.214;2023-03-03T08:38:09;55.22;;;49.28;;
577;SDS011;275;48.492;9.214;2023-03-03T08:40:36;54.50;;;48.78;;
577;SDS011;275;48.492;9.214;2023-03-03T08:43:04;54.33;;;47.60;;
577;SDS011;275;48.492;9.214;2023-03-03T08:45:31;55.55;;;49.50;;
577;SDS011;275;48.492;9.214;2023-03-03T08:47:59;53.95;;;48.08;;
577;SDS011;275;48.492;9.214;2023-03-03T08:50:26;55.35;;;49.22;;
577;SDS011;275;48.492;9.214;2023-03-03T08:52:55;56.50;;;50.60;;
577;SDS011;275;48.492;9.214;2023-03-03T08:55:22;52.17;;;46.63;;
577;SDS011;275;48.492;9.214;2023-03-03T08:57:49;55.25;;;49.25;;
577;SDS011;275;48.492;9.214;2023-03-03T09:00:16;53.00;;;47.20;;
577;SDS011;275;48.492;9.214;2023-03-03T09:02:44;50.65;;;45.35;;
577;SDS011;275;48.492;9.214;2023-03-03T09:05:11;53.20;;;47.60;;
577;SDS011;275;48.492;9.214;2023-03-03T09:07:38;50.25;;;44.58;;
577;SDS011;275;48.492;9.214;2023-03-03T09:10:07;52.78;;;46.08;;
577;SDS011;275;48.492;9.214;2023-03-03T09:12:36;50.17;;;44.90;;
577;SDS011;275;48.492;9.214;2023-03-03T09:15:11;52.20;;;46.72;;
577;SDS011;275;48.492;9.214;2023-03-03T09:17:41;50.50;;;45.13;;
577;SDS011;275;48.492;9.214;2023-03-03T09:20:29;49.25;;;43.95;;
577;SDS011;275;48.492;9.214;2023-03-03T09:22:59;49.35;;;42.05;;
577;SDS011;275;48.492;9.214;2023-03-03T09:26:05;48.85;;;43.58;;
577;SDS011;275;48.492;9.214;2023-03-03T09:28:51;49.08;;;44.08;;
577;SDS011;275;48.492;9.214;2023-03-03T09:31:21;56.22;;;46.67;;
577;SDS011;275;48.492;9.214;2023-03-03T09:33:51;46.65;;;41.65;;
577;SDS011;275;48.492;9.214;2023-03-03T09:36:24;47.80;;;42.78;;
577;SDS011;275;48.492;9.214;2023-03-03T09:38:53;55.83;;;45.30;;
577;SDS011;275;48.492;9.214;2023-03-03T09:41:35;48.20;;;43.13;;
577;SDS011;275;48.492;9.214;2023-03-03T09:44:33;45.45;;;40.75;;
577;SDS011;275;48.492;9.214;2023-03-03T09:47:33;45.10;;;39.35;;
577;SDS011;275;48.492;9.214;2023-03-03T09:50:23;45.03;;;40.25;;
577;SDS011;275;48.492;9.214;2023-03-03T09:53:01;45.03;;;40.35;;
577;SDS011;275;48.492;9.214;2023-03-03T09:55:40;45.35;;;40.50;;
577;SDS011;275;48.492;9.214;2023-03-03T09:58:18;45.05;;;40.28;;
577;SDS011;275;48.492;9.214;2023-03-03T10:01:05;45.45;;;40.45;;
577;SDS011;275;48.492;9.214;2023-03-03T10:03:56;41.65;;;37.50;;
577;SDS011;275;48.492;9.214;2023-03-03T10:06:48;40.17;;;36.13;;
577;SDS011;275;48.492;9.214;2023-03-03T10:09:40;43.95;;;38.30;;
577;SDS011;275;48.492;9.214;2023-03-03T10:12:17;40.97;;;36.63;;
577;SDS011;275;48.492;9.214;2023-03-03T10:14:52;45.70;;;37.85;;
577;SDS011;275;48.492;9.214;2023-03-03T10:17:40;40.75;;;36.35;;
577;SDS011;275;48.492;9.214;2023-03-03T10:23:19;40.00;;;34.33;;
577;SDS011;275;48.492;9.214;2023-03-03T10:25:53;43.60;;;37.40;;
577;SDS011;275;48.492;9.214;2023-03-03T10:28:34;42.77;;;37.77;;
577;SDS011;275;48.492;9.214;2023-03-03T10:31:25;38.67;;;34.70;;
577;SDS011;275;48.492;9.214;2023-03-03T10:34:04;41.90;;;37.37;;
577;SDS011;275;48.492;9.214;2023-03-03T10:36:40;40.67;;;36.37;;
577;SDS011;275;48.492;9.214;2023-03-03T10:39:18;41.33;;;36.80;;
577;SDS011;275;48.492;9.214;2023-03-03T10:41:57;42.53;;;37.92;;
577;SDS011;275;48.492;9.214;2023-03-03T10:44:41;43.63;;;39.03;;
577;SDS011;275;48.492;9.214;2023-03-03T10:47:29;42.95;;;38.35;;
577;SDS011;275;48.492;9.214;2023-03-03T10:50:11;40.15;;;35.95;;
577;SDS011;275;48.492;9.214;2023-03-03T10:52:45;42.90;;;37.13;;
577;SDS011;275;48.492;9.214;2023-03-03T10:55:26;42.55;;;36.90;;
577;SDS011;275;48.492;9.214;2023-03-03T10:58:04;42.07;;;37.57;;
577;SDS011;275;48.492;9.214;2023-03-03T11:00:57;44.40;;;37.40;;
577;SDS011;275;48.492;9.214;2023-03-03T11:06:34;42.40;;;35.50;;
577;SDS011;275;48.492;9.214;2023-03-03T11:09:11;37.67;;;33.57;;
577;SDS011;275;48.492;9.214;2023-03-03T11:11:49;37.13;;;33.23;;
577;SDS011;275;48.492;9.214;2023-03-03T11:14:21;40.07;;;35.97;;
577;SDS011;275;48.492;9.214;2023-03-03T11:16:55;39.27;;;35.03;;
577;SDS011;275;48.492;9.214;2023-03-03T11:19:39;42.17;;;34.97;;
577;SDS011;275;48.492;9.214;2023-03-03T11:22:22;40.87;;;36.47;;
577;SDS011;275;48.492;9.214;2023-03-03T11:25:00;40.40;;;36.30;;
577;SDS011;275;48.492;9.214;2023-03-03T11:27:50;40.70;;;36.27;;
577;SDS011;275;48.492;9.214;2023-03-03T11:30:32;45.03;;;39.17;;
577;SDS011;275;48.492;9.214;2023-03-03T11:33:05;45.90;;;41.03;;
577;SDS011;275;48.492;9.214;2023-03-03T11:35:43;44.30;;;39.50;;
577;SDS011;275;48.492;9.214;2023-03-03T11:38:28;43.70;;;39.08;;
577;SDS011;275;48.492;9.214;2023-03-03T11:41:10;41.47;;;37.15;;
577;SDS011;275;48.492;9.214;2023-03-03T11:43:45;42.20;;;37.75;;
577;SDS011;275;48.492;9.214;2023-03-03T11:46:17;44.95;;;40.20;;
577;SDS011;275;48.492;9.214;2023-03-03T11:48:51;44.65;;;40.25;;
577;SDS011;275;48.492;9.214;2023-03-03T11:51:26;44.95;;;40.35;;
577;SDS011;275;48.492;9.214;2023-03-03T11:54:03;46.58;;;41.78;;
577;SDS011;275;48.492;9.214;2023-03-03T11:56:37;45.45;;;40.35;;
577;SDS011;275;48.492;9.214;2023-03-03T11:59:14;46.92;;;42.05;;
577;SDS011;275;48.492;9.214;2023-03-03T12:01:55;43.00;;;38.50;;
577;SDS011;275;48.492;9.214;2023-03-03T12:04:26;43.90;;;39.25;;
577;SDS011;275;48.492;9.214;2023-03-03T12:07:22;41.97;;;37.50;;
577;SDS011;275;48.492;9.214;2023-03-03T12:10:09;40.17;;;35.78;;
577;SDS011;275;48.492;9.214;2023-03-03T12:12:43;41.72;;;37.22;;
577;SDS011;275;48.492;9.214;2023-03-03T12:15:18;43.17;;;36.45;;
577;SDS011;275;48.492;9.214;2023-03-03T12:17:56;38.73;;;34.83;;
577;SDS011;275;48.492;9.214;2023-03-03T12:20:33;44.83;;;39.40;;
577;SDS011;275;48.492;9.214;2023-03-03T12:23:10;41.42;;;37.17;;
577;SDS011;275;48.492;9.214;2023-03-03T12:25:50;42.88;;;36.80;;
577;SDS011;275;48.492;9.214;2023-03-03T12:28:24;41.43;;;37.27;;
577;SDS011;275;48.492;9.214;2023-03-03T12:31:11;42.13;;;36.55;;
577;SDS011;275;48.492;9.214;2023-03-03T12:33:56;41.57;;;37.07;;
577;SDS011;275;48.492;9.214;2023-03-03T12:36:31;39.03;;;34.73;;
577;SDS011;275;48.492;9.214;2023-03-03T12:39:14;39.40;;;35.00;;
577;SDS011;275;48.492;9.214;2023-03-03T12:41:51;38.97;;;34.57;;
577;SDS011;275;48.492;9.214;2023-03-03T12:44:26;38.70;;;34.67;;
577;SDS011;275;48.492;9.214;2023-03-03T12:47:00;39.30;;;35.10;;
577;SDS011;275;48.492;9.214;2023-03-03T12:49:33;39.67;;;34.27;;
577;SDS011;275;48.492;9.214;2023-03-03T12:52:07;40.27;;;35.33;;
577;SDS011;275;48.492;9.214;2023-03-03T12:54:53;38.20;;;34.03;;
577;SDS011;275;48.492;9.214;2023-03-03T12:57:30;37.77;;;33.90;;
577;SDS011;275;48.492;9.214;2023-03-03T13:00:12;38.13;;;34.00;;
577;SDS011;275;48.492;9.214;2023-03-03T13:02:55;44.90;;;35.30;;
577;SDS011;275;48.492;9.214;2023-03-03T13:05:28;41.03;;;36.43;;
577;SDS011;275;48.492;9.214;2023-03-03T13:11:06;39.30;;;35.30;;
577;SDS011;275;48.492;9.214;2023-03-03T13:13:46;39.37;;;33.90;;
577;SDS011;275;48.492;9.214;2023-03-03T13:16:19;38.87;;;34.50;;
577;SDS011;275;48.492;9.214;2023-03-03T13:18:52;39.27;;;35.17;;
577;SDS011;275;48.492;9.214;2023-03-03T13:21:24;39.07;;;35.07;;
577;SDS011;275;48.492;9.214;2023-03-03T13:23:57;38.13;;;33.97;;
577;SDS011;275;48.492;9.214;2023-03-03T13:26:32;39.47;;;35.47;;
577;SDS011;275;48.492;9.214;2023-03-03T13:29:03;36.83;;;32.93;;
577;SDS011;275;48.492;9.214;2023-03-03T13:31:39;40.23;;;35.73;;
577;SDS011;275;48.492;9.214;2023-03-03T13:34:13;39.77;;;35.57;;
577;SDS011;275;48.492;9.214;2023-03-03T13:36:49;39.87;;;35.80;;
577;SDS011;275;48.492;9.214;2023-03-03T13:39:23;39.47;;;35.00;;
577;SDS011;275;48.492;9.214;2023-03-03T13:41:56;40.87;;;36.47;;
577;SDS011;275;48.492;9.214;2023-03-03T13:44:28;38.20;;;34.43;;
577;SDS011;275;48.492;9.214;2023-03-03T13:47:02;39.23;;;35.13;;
577;SDS011;275;48.492;9.214;2023-03-03T13:49:43;38.93;;;34.87;;
577;SDS011;275;48.492;9.214;2023-03-03T13:52:17;39.33;;;35.20;;
577;SDS011;275;48.492;9.214;2023-03-03T13:54:50;40.37;;;36.37;;
577;SDS011;275;48.492;9.214;2023-03-03T13:57:26;39.13;;;35.23;;
577;SDS011;275;48.492;9.214;2023-03-03T14:00:06;40.83;;;36.97;;
577;SDS011;275;48.492;9.214;2023-03-03T14:02:49;41.43;;;37.23;;
577;SDS011;275;48.492;9.214;2023-03-03T14:05:49;42.30;;;37.87;;
577;SDS011;275;48.492;9.214;2023-03-03T14:08:20;40.60;;;36.30;;
577;SDS011;275;48.492;9.214;2023-03-03T14:11:00;42.27;;;37.67;;
577;SDS011;275;48.492;9.214;2023-03-03T14:13:38;41.63;;;37.50;;
577;SDS011;275;48.492;9.214;2023-03-03T14:16:14;42.27;;;37.67;;
577;SDS011;275;48.492;9.214;2023-03-03T14:18:50;41.80;;;37.40;;
577;SDS011;275;48.492;9.214;2023-03-03T14:21:23;38.57;;;34.50;;
577;SDS011;275;48.492;9.214;2023-03-03T14:23:56;41.07;;;36.63;;
577;SDS011;275;48.492;9.214;2023-03-03T14:26:26;39.87;;;35.87;;
577;SDS011;275;48.492;9.214;2023-03-03T14:29:04;41.27;;;36.17;;
577;SDS011;275;48.492;9.214;2023-03-03T14:31:47;38.30;;;34.53;;
577;SDS011;275;48.492;9.214;2023-03-03T14:34:25;40.80;;;36.57;;
577;SDS011;275;48.492;9.214;2023-03-03T14:37:08;37.70;;;33.90;;
577;SDS011;275;48.492;9.214;2023-03-03T14:39:48;41.20;;;36.95;;
577;SDS011;275;48.492;9.214;2023-03-03T14:42:30;42.10;;;37.75;;
577;SDS011;275;48.492;9.214;2023-03-03T14:45:00;43.08;;;38.80;;
577;SDS011;275;48.492;9.214;2023-03-03T14:47:38;43.80;;;39.53;;
577;SDS011;275;48.492;9.214;2023-03-03T14:50:26;44.50;;;39.90;;
577;SDS011;275;48.492;9.214;2023-03-03T14:53:03;41.70;;;37.28;;
577;SDS011;275;48.492;9.214;2023-03-03T14:55:38;42.17;;;38.15;;
577;SDS011;275;48.492;9.214;2023-03-03T14:58:07;43.90;;;39.47;;
577;SDS011;275;48.492;9.214;2023-03-03T15:01:08;40.42;;;36.30;;
577;SDS011;275;48.492;9.214;2023-03-03T15:03:45;41.67;;;37.35;;
577;SDS011;275;48.492;9.214;2023-03-03T15:06:29;42.88;;;38.65;;
577;SDS011;275;48.492;9.214;2023-03-03T15:09:19;43.67;;;39.00;;
577;SDS011;275;48.492;9.214;2023-03-03T15:11:50;44.63;;;40.25;;
577;SDS011;275;48.492;9.214;2023-03-03T15:14:17;44.97;;;40.35;;
577;SDS011;275;48.492;9.214;2023-03-03T15:16:49;43.95;;;39.55;;
577;SDS011;275;48.492;9.214;2023-03-03T15:22:06;43.03;;;38.42;;
577;SDS011;275;48.492;9.214;2023-03-03T15:24:44;41.90;;;37.47;;
577;SDS011;275;48.492;9.214;2023-03-03T15:27:21;42.97;;;38.67;;
577;SDS011;275;48.492;9.214;2023-03-03T15:29:54;42.22;;;37.65;;
577;SDS011;275;48.492;9.214;2023-03-03T15:32:31;42.22;;;37.83;;
577;SDS011;275;48.492;9.214;2023-03-03T15:35:05;43.22;;;39.00;;
577;SDS011;275;48.492;9.214;2023-03-03T15:37:46;41.70;;;37.40;;
577;SDS011;275;48.492;9.214;2023-03-03T15:40:21;40.60;;;36.40;;
577;SDS011;275;48.492;9.214;2023-03-03T15:42:54;39.55;;;35.45;;
577;SDS011;275;48.492;9.214;2023-03-03T15:45:28;40.75;;;36.95;;
577;SDS011;275;48.492;9.214;2023-03-03T15:48:12;39.22;;;34.67;;
577;SDS011;275;48.492;9.214;2023-03-03T15:50:51;37.55;;;33.75;;
577;SDS011;275;48.492;9.214;2023-03-03T15:53:26;37.92;;;34.08;;
577;SDS011;275;48.492;9.214;2023-03-03T15:56:04;38.50;;;34.38;;
577;SDS011;275;48.492;9.214;2023-03-03T15:58:47;40.78;;;36.67;;
577;SDS011;275;48.492;9.214;2023-03-03T16:01:33;39.58;;;35.42;;
577;SDS011;275;48.492;9.214;2023-03-03T16:04:08;40.80;;;35.03;;
577;SDS011;275;48.492;9.214;2023-03-03T16:06:40;39.70;;;35.58;;